Lincoln, Nebraska
Current Conditions -  °F | °C
As of 4:54 AM on Thursday 23 Oct 2014 (Local Time) from KLNK Reporting Station
Haze Haze  
Wind Chill: 16°   Ceiling: 2400
Heat Index: 16°   Visibility: 6mi
Dew Point: 14°   Wind: 0mph
Humidity: 93%   Direction: NA
Pressure: 30.05"   Gusts: NA
Location:  40.81°N, 96.71°W
Report Text: KLNK 230954Z AUTO 00000KT 6SM BR FEW014 OVC024 16/14 A3005 RMK AO2 SLP167 T01560144
Loading
Personal Weather Stations






























Interactive Weather Map New forecast layout! Learn more

10-Day Weather Forecast

Advertisements
Track Severe Weather on mobile